sensor_id;sensor_type;location;lat;lon;timestamp;P1;durP1;ratioP1;P2;durP2;ratioP2
6985;SDS011;3533;51.246;6.850;2022-10-31T00:02:19;5.17;;;4.77;;
6985;SDS011;3533;51.246;6.850;2022-10-31T00:04:44;5.47;;;5.07;;
6985;SDS011;3533;51.246;6.850;2022-10-31T00:07:10;4.40;;;4.10;;
6985;SDS011;3533;51.246;6.850;2022-10-31T00:09:35;5.20;;;4.80;;
6985;SDS011;3533;51.246;6.850;2022-10-31T00:12:01;5.00;;;4.53;;
6985;SDS011;3533;51.246;6.850;2022-10-31T00:14:27;4.47;;;4.17;;
6985;SDS011;3533;51.246;6.850;2022-10-31T00:16:52;4.80;;;4.40;;
6985;SDS011;3533;51.246;6.850;2022-10-31T00:19:18;5.17;;;4.87;;
6985;SDS011;3533;51.246;6.850;2022-10-31T00:21:43;4.67;;;4.40;;
6985;SDS011;3533;51.246;6.850;2022-10-31T00:24:09;6.40;;;5.40;;
6985;SDS011;3533;51.246;6.850;2022-10-31T00:26:35;4.63;;;4.33;;
6985;SDS011;3533;51.246;6.850;2022-10-31T00:29:01;4.80;;;4.50;;
6985;SDS011;3533;51.246;6.850;2022-10-31T00:31:27;5.00;;;4.60;;
6985;SDS011;3533;51.246;6.850;2022-10-31T00:33:53;4.70;;;4.40;;
6985;SDS011;3533;51.246;6.850;2022-10-31T00:36:19;4.80;;;4.60;;
6985;SDS011;3533;51.246;6.850;2022-10-31T00:38:45;4.37;;;4.07;;
6985;SDS011;3533;51.246;6.850;2022-10-31T00:41:12;5.20;;;4.90;;
6985;SDS011;3533;51.246;6.850;2022-10-31T00:43:39;5.60;;;5.10;;
6985;SDS011;3533;51.246;6.850;2022-10-31T00:46:04;4.50;;;4.30;;
6985;SDS011;3533;51.246;6.850;2022-10-31T00:48:30;4.73;;;4.40;;
6985;SDS011;3533;51.246;6.850;2022-10-31T00:50:56;4.53;;;4.23;;
6985;SDS011;3533;51.246;6.850;2022-10-31T00:53:21;4.80;;;4.43;;
6985;SDS011;3533;51.246;6.850;2022-10-31T00:55:47;4.83;;;4.53;;
6985;SDS011;3533;51.246;6.850;2022-10-31T00:58:13;4.87;;;4.57;;
6985;SDS011;3533;51.246;6.850;2022-10-31T01:00:39;5.07;;;4.77;;
6985;SDS011;3533;51.246;6.850;2022-10-31T01:03:04;4.73;;;4.43;;
6985;SDS011;3533;51.246;6.850;2022-10-31T01:05:30;5.17;;;4.83;;
6985;SDS011;3533;51.246;6.850;2022-10-31T01:07:56;5.20;;;4.90;;
6985;SDS011;3533;51.246;6.850;2022-10-31T01:10:21;5.40;;;5.00;;
6985;SDS011;3533;51.246;6.850;2022-10-31T01:12:48;4.47;;;4.27;;
6985;SDS011;3533;51.246;6.850;2022-10-31T01:15:15;5.77;;;5.33;;
6985;SDS011;3533;51.246;6.850;2022-10-31T01:17:42;5.40;;;5.10;;
6985;SDS011;3533;51.246;6.850;2022-10-31T01:20:08;4.30;;;4.10;;
6985;SDS011;3533;51.246;6.850;2022-10-31T01:22:35;5.00;;;4.70;;
6985;SDS011;3533;51.246;6.850;2022-10-31T01:25:00;6.87;;;4.87;;
6985;SDS011;3533;51.246;6.850;2022-10-31T01:27:26;5.10;;;4.80;;
6985;SDS011;3533;51.246;6.850;2022-10-31T01:29:51;4.63;;;4.33;;
6985;SDS011;3533;51.246;6.850;2022-10-31T01:32:17;4.37;;;4.03;;
6985;SDS011;3533;51.246;6.850;2022-10-31T01:34:42;4.93;;;4.53;;
6985;SDS011;3533;51.246;6.850;2022-10-31T01:37:08;4.90;;;4.67;;
6985;SDS011;3533;51.246;6.850;2022-10-31T01:39:34;5.17;;;4.80;;
6985;SDS011;3533;51.246;6.850;2022-10-31T01:41:59;4.93;;;4.60;;
6985;SDS011;3533;51.246;6.850;2022-10-31T01:55:12;7.23;;;5.33;;
6985;SDS011;3533;51.246;6.850;2022-10-31T01:57:51;4.70;;;4.40;;
6985;SDS011;3533;51.246;6.850;2022-10-31T02:00:19;5.20;;;4.70;;
6985;SDS011;3533;51.246;6.850;2022-10-31T02:02:46;5.07;;;4.77;;
6985;SDS011;3533;51.246;6.850;2022-10-31T02:05:15;5.13;;;4.77;;
6985;SDS011;3533;51.246;6.850;2022-10-31T02:07:55;4.37;;;4.17;;
6985;SDS011;3533;51.246;6.850;2022-10-31T02:10:25;5.00;;;4.47;;
6985;SDS011;3533;51.246;6.850;2022-10-31T02:12:53;5.40;;;4.90;;
6985;SDS011;3533;51.246;6.850;2022-10-31T02:15:21;4.50;;;4.20;;
6985;SDS011;3533;51.246;6.850;2022-10-31T02:17:47;5.37;;;4.97;;
6985;SDS011;3533;51.246;6.850;2022-10-31T02:20:16;5.00;;;4.70;;
6985;SDS011;3533;51.246;6.850;2022-10-31T02:25:58;4.67;;;4.37;;
6985;SDS011;3533;51.246;6.850;2022-10-31T02:29:02;4.40;;;4.10;;
6985;SDS011;3533;51.246;6.850;2022-10-31T02:31:54;4.50;;;4.20;;
6985;SDS011;3533;51.246;6.850;2022-10-31T02:34:25;4.97;;;4.67;;
6985;SDS011;3533;51.246;6.850;2022-10-31T02:37:01;4.47;;;4.27;;
6985;SDS011;3533;51.246;6.850;2022-10-31T02:44:44;4.60;;;4.40;;
6985;SDS011;3533;51.246;6.850;2022-10-31T02:47:16;4.37;;;4.07;;
6985;SDS011;3533;51.246;6.850;2022-10-31T02:52:31;4.50;;;4.30;;
6985;SDS011;3533;51.246;6.850;2022-10-31T02:54:58;4.53;;;4.23;;
6985;SDS011;3533;51.246;6.850;2022-10-31T02:57:35;5.37;;;4.93;;
6985;SDS011;3533;51.246;6.850;2022-10-31T03:00:05;5.07;;;4.67;;
6985;SDS011;3533;51.246;6.850;2022-10-31T03:02:36;4.90;;;4.50;;
6985;SDS011;3533;51.246;6.850;2022-10-31T03:07:51;5.10;;;4.80;;
6985;SDS011;3533;51.246;6.850;2022-10-31T03:16:17;4.83;;;4.53;;
6985;SDS011;3533;51.246;6.850;2022-10-31T03:19:06;4.07;;;3.80;;
6985;SDS011;3533;51.246;6.850;2022-10-31T03:21:42;4.50;;;4.20;;
6985;SDS011;3533;51.246;6.850;2022-10-31T03:24:15;4.60;;;4.40;;
6985;SDS011;3533;51.246;6.850;2022-10-31T03:26:42;4.23;;;4.00;;
6985;SDS011;3533;51.246;6.850;2022-10-31T03:29:15;5.17;;;4.77;;
6985;SDS011;3533;51.246;6.850;2022-10-31T03:31:44;5.20;;;4.80;;
6985;SDS011;3533;51.246;6.850;2022-10-31T03:34:20;4.30;;;4.00;;
6985;SDS011;3533;51.246;6.850;2022-10-31T03:36:50;4.60;;;4.30;;
6985;SDS011;3533;51.246;6.850;2022-10-31T03:39:20;5.60;;;4.47;;
6985;SDS011;3533;51.246;6.850;2022-10-31T03:41:51;4.67;;;4.40;;
6985;SDS011;3533;51.246;6.850;2022-10-31T03:44:25;4.70;;;4.30;;
6985;SDS011;3533;51.246;6.850;2022-10-31T03:46:54;4.20;;;3.90;;
6985;SDS011;3533;51.246;6.850;2022-10-31T03:49:19;5.93;;;5.43;;
6985;SDS011;3533;51.246;6.850;2022-10-31T03:57:13;5.20;;;4.80;;
6985;SDS011;3533;51.246;6.850;2022-10-31T03:59:44;4.60;;;4.20;;
6985;SDS011;3533;51.246;6.850;2022-10-31T04:02:16;5.00;;;4.60;;
6985;SDS011;3533;51.246;6.850;2022-10-31T04:04:43;4.53;;;4.33;;
6985;SDS011;3533;51.246;6.850;2022-10-31T04:07:11;4.60;;;4.30;;
6985;SDS011;3533;51.246;6.850;2022-10-31T04:09:39;4.60;;;4.20;;
6985;SDS011;3533;51.246;6.850;2022-10-31T04:12:06;4.80;;;4.30;;
6985;SDS011;3533;51.246;6.850;2022-10-31T04:14:36;7.37;;;4.30;;
6985;SDS011;3533;51.246;6.850;2022-10-31T04:17:05;4.53;;;4.13;;
6985;SDS011;3533;51.246;6.850;2022-10-31T04:19:35;4.60;;;4.33;;
6985;SDS011;3533;51.246;6.850;2022-10-31T04:22:01;5.00;;;4.70;;
6985;SDS011;3533;51.246;6.850;2022-10-31T04:24:26;4.50;;;4.20;;
6985;SDS011;3533;51.246;6.850;2022-10-31T04:26:52;4.77;;;4.47;;
6985;SDS011;3533;51.246;6.850;2022-10-31T04:29:17;5.00;;;4.60;;
6985;SDS011;3533;51.246;6.850;2022-10-31T04:31:43;4.87;;;4.47;;
6985;SDS011;3533;51.246;6.850;2022-10-31T04:34:08;4.57;;;4.27;;
6985;SDS011;3533;51.246;6.850;2022-10-31T04:36:34;4.30;;;4.03;;
6985;SDS011;3533;51.246;6.850;2022-10-31T04:38:59;4.27;;;3.97;;
6985;SDS011;3533;51.246;6.850;2022-10-31T04:41:25;4.10;;;3.90;;
6985;SDS011;3533;51.246;6.850;2022-10-31T04:43:50;5.80;;;3.97;;
6985;SDS011;3533;51.246;6.850;2022-10-31T04:46:16;4.50;;;4.20;;
6985;SDS011;3533;51.246;6.850;2022-10-31T04:48:42;4.60;;;4.30;;
6985;SDS011;3533;51.246;6.850;2022-10-31T04:51:07;4.97;;;4.60;;
6985;SDS011;3533;51.246;6.850;2022-10-31T04:53:33;4.30;;;3.93;;
6985;SDS011;3533;51.246;6.850;2022-10-31T04:55:59;4.47;;;4.07;;
6985;SDS011;3533;51.246;6.850;2022-10-31T04:58:27;4.93;;;4.63;;
6985;SDS011;3533;51.246;6.850;2022-10-31T05:00:53;4.63;;;4.43;;
6985;SDS011;3533;51.246;6.850;2022-10-31T05:03:19;5.80;;;5.30;;
6985;SDS011;3533;51.246;6.850;2022-10-31T05:05:45;5.40;;;4.87;;
6985;SDS011;3533;51.246;6.850;2022-10-31T05:08:11;4.27;;;3.97;;
6985;SDS011;3533;51.246;6.850;2022-10-31T05:10:36;4.10;;;3.80;;
6985;SDS011;3533;51.246;6.850;2022-10-31T05:13:02;4.83;;;4.43;;
6985;SDS011;3533;51.246;6.850;2022-10-31T05:15:29;3.90;;;3.70;;
6985;SDS011;3533;51.246;6.850;2022-10-31T05:17:55;4.67;;;4.37;;
6985;SDS011;3533;51.246;6.850;2022-10-31T05:20:21;4.60;;;4.30;;
6985;SDS011;3533;51.246;6.850;2022-10-31T05:22:49;4.40;;;4.10;;
6985;SDS011;3533;51.246;6.850;2022-10-31T05:25:17;5.30;;;4.80;;
6985;SDS011;3533;51.246;6.850;2022-10-31T05:27:44;5.20;;;4.80;;
6985;SDS011;3533;51.246;6.850;2022-10-31T05:30:13;5.70;;;4.50;;
6985;SDS011;3533;51.246;6.850;2022-10-31T05:32:43;4.37;;;3.97;;
6985;SDS011;3533;51.246;6.850;2022-10-31T05:35:11;4.60;;;4.30;;
6985;SDS011;3533;51.246;6.850;2022-10-31T05:37:38;4.53;;;4.13;;
6985;SDS011;3533;51.246;6.850;2022-10-31T05:40:04;3.90;;;3.70;;
6985;SDS011;3533;51.246;6.850;2022-10-31T05:42:31;4.57;;;4.27;;
6985;SDS011;3533;51.246;6.850;2022-10-31T05:44:57;4.77;;;4.47;;
6985;SDS011;3533;51.246;6.850;2022-10-31T05:47:22;5.77;;;5.23;;
6985;SDS011;3533;51.246;6.850;2022-10-31T05:49:48;5.23;;;4.83;;
6985;SDS011;3533;51.246;6.850;2022-10-31T05:52:14;5.07;;;4.67;;
6985;SDS011;3533;51.246;6.850;2022-10-31T05:54:39;5.57;;;5.07;;
6985;SDS011;3533;51.246;6.850;2022-10-31T05:57:05;5.30;;;4.83;;
6985;SDS011;3533;51.246;6.850;2022-10-31T05:59:31;6.00;;;5.53;;
6985;SDS011;3533;51.246;6.850;2022-10-31T06:01:56;5.67;;;5.27;;
6985;SDS011;3533;51.246;6.850;2022-10-31T06:04:22;4.90;;;4.50;;
6985;SDS011;3533;51.246;6.850;2022-10-31T06:06:48;6.53;;;4.47;;
6985;SDS011;3533;51.246;6.850;2022-10-31T06:09:13;5.40;;;4.67;;
6985;SDS011;3533;51.246;6.850;2022-10-31T06:11:39;5.23;;;4.83;;
6985;SDS011;3533;51.246;6.850;2022-10-31T06:14:05;5.50;;;5.00;;
6985;SDS011;3533;51.246;6.850;2022-10-31T06:16:30;6.10;;;4.80;;
6985;SDS011;3533;51.246;6.850;2022-10-31T06:18:56;5.03;;;4.73;;
6985;SDS011;3533;51.246;6.850;2022-10-31T06:21:22;5.60;;;4.57;;
6985;SDS011;3533;51.246;6.850;2022-10-31T06:23:47;6.00;;;5.07;;
6985;SDS011;3533;51.246;6.850;2022-10-31T06:26:13;4.90;;;4.60;;
6985;SDS011;3533;51.246;6.850;2022-10-31T06:28:38;4.87;;;4.53;;
6985;SDS011;3533;51.246;6.850;2022-10-31T06:31:04;4.70;;;4.40;;
6985;SDS011;3533;51.246;6.850;2022-10-31T06:33:29;5.47;;;5.00;;
6985;SDS011;3533;51.246;6.850;2022-10-31T06:35:55;6.00;;;5.40;;
6985;SDS011;3533;51.246;6.850;2022-10-31T06:38:20;4.97;;;4.57;;
6985;SDS011;3533;51.246;6.850;2022-10-31T06:40:46;5.50;;;5.07;;
6985;SDS011;3533;51.246;6.850;2022-10-31T06:43:11;5.20;;;4.80;;
6985;SDS011;3533;51.246;6.850;2022-10-31T06:45:39;6.43;;;5.40;;
6985;SDS011;3533;51.246;6.850;2022-10-31T06:48:04;4.70;;;4.30;;
6985;SDS011;3533;51.246;6.850;2022-10-31T06:50:30;4.70;;;4.40;;
6985;SDS011;3533;51.246;6.850;2022-10-31T06:52:57;5.27;;;4.80;;
6985;SDS011;3533;51.246;6.850;2022-10-31T06:55:24;5.57;;;5.17;;
6985;SDS011;3533;51.246;6.850;2022-10-31T06:58:00;5.00;;;4.70;;
6985;SDS011;3533;51.246;6.850;2022-10-31T07:00:26;5.10;;;4.73;;
6985;SDS011;3533;51.246;6.850;2022-10-31T07:03:01;4.93;;;4.50;;
6985;SDS011;3533;51.246;6.850;2022-10-31T07:05:29;4.97;;;4.57;;
6985;SDS011;3533;51.246;6.850;2022-10-31T07:07:56;5.37;;;4.87;;
6985;SDS011;3533;51.246;6.850;2022-10-31T07:10:27;5.43;;;5.03;;
6985;SDS011;3533;51.246;6.850;2022-10-31T07:12:54;5.13;;;4.73;;
6985;SDS011;3533;51.246;6.850;2022-10-31T07:15:21;5.53;;;5.23;;
6985;SDS011;3533;51.246;6.850;2022-10-31T07:17:47;7.33;;;4.87;;
6985;SDS011;3533;51.246;6.850;2022-10-31T07:20:13;5.30;;;4.90;;
6985;SDS011;3533;51.246;6.850;2022-10-31T07:22:38;5.23;;;4.83;;
6985;SDS011;3533;51.246;6.850;2022-10-31T07:25:04;5.77;;;5.30;;
6985;SDS011;3533;51.246;6.850;2022-10-31T07:27:37;4.93;;;4.53;;
6985;SDS011;3533;51.246;6.850;2022-10-31T07:30:03;5.63;;;5.13;;
6985;SDS011;3533;51.246;6.850;2022-10-31T07:32:46;5.53;;;5.00;;
6985;SDS011;3533;51.246;6.850;2022-10-31T07:35:14;4.20;;;4.00;;
6985;SDS011;3533;51.246;6.850;2022-10-31T07:37:41;5.10;;;4.63;;
6985;SDS011;3533;51.246;6.850;2022-10-31T07:40:07;4.87;;;4.47;;
6985;SDS011;3533;51.246;6.850;2022-10-31T07:42:37;5.03;;;4.73;;
6985;SDS011;3533;51.246;6.850;2022-10-31T07:45:06;5.37;;;4.97;;
6985;SDS011;3533;51.246;6.850;2022-10-31T07:47:49;6.03;;;5.23;;
6985;SDS011;3533;51.246;6.850;2022-10-31T07:50:20;4.80;;;4.50;;
6985;SDS011;3533;51.246;6.850;2022-10-31T07:52:57;7.93;;;5.40;;
6985;SDS011;3533;51.246;6.850;2022-10-31T07:55:28;11.27;;;5.23;;
6985;SDS011;3533;51.246;6.850;2022-10-31T07:57:58;5.13;;;4.63;;
6985;SDS011;3533;51.246;6.850;2022-10-31T08:00:51;5.10;;;4.67;;
6985;SDS011;3533;51.246;6.850;2022-10-31T08:03:17;8.33;;;4.70;;
6985;SDS011;3533;51.246;6.850;2022-10-31T08:05:43;5.80;;;5.30;;
6985;SDS011;3533;51.246;6.850;2022-10-31T08:08:11;5.90;;;4.87;;
6985;SDS011;3533;51.246;6.850;2022-10-31T08:10:37;5.57;;;5.03;;
6985;SDS011;3533;51.246;6.850;2022-10-31T08:13:04;5.40;;;4.90;;
6985;SDS011;3533;51.246;6.850;2022-10-31T08:15:39;5.93;;;5.43;;
6985;SDS011;3533;51.246;6.850;2022-10-31T08:18:10;5.30;;;5.00;;
6985;SDS011;3533;51.246;6.850;2022-10-31T08:20:37;10.07;;;5.90;;
6985;SDS011;3533;51.246;6.850;2022-10-31T08:23:03;6.33;;;5.93;;
6985;SDS011;3533;51.246;6.850;2022-10-31T08:25:30;7.17;;;5.67;;
6985;SDS011;3533;51.246;6.850;2022-10-31T08:27:56;5.50;;;4.40;;
6985;SDS011;3533;51.246;6.850;2022-10-31T08:30:23;4.87;;;4.43;;
6985;SDS011;3533;51.246;6.850;2022-10-31T08:33:00;6.10;;;5.50;;
6985;SDS011;3533;51.246;6.850;2022-10-31T08:35:28;5.50;;;5.03;;
6985;SDS011;3533;51.246;6.850;2022-10-31T08:37:57;5.93;;;5.03;;
6985;SDS011;3533;51.246;6.850;2022-10-31T08:40:23;5.37;;;4.87;;
6985;SDS011;3533;51.246;6.850;2022-10-31T08:42:59;5.60;;;5.20;;
6985;SDS011;3533;51.246;6.850;2022-10-31T08:45:27;5.20;;;4.70;;
6985;SDS011;3533;51.246;6.850;2022-10-31T08:47:57;4.57;;;4.30;;
6985;SDS011;3533;51.246;6.850;2022-10-31T08:50:24;5.20;;;4.80;;
6985;SDS011;3533;51.246;6.850;2022-10-31T08:52:50;6.03;;;5.47;;
6985;SDS011;3533;51.246;6.850;2022-10-31T08:55:15;5.43;;;5.13;;
6985;SDS011;3533;51.246;6.850;2022-10-31T08:57:41;5.90;;;5.40;;
6985;SDS011;3533;51.246;6.850;2022-10-31T09:00:07;5.57;;;5.10;;
6985;SDS011;3533;51.246;6.850;2022-10-31T09:02:33;6.00;;;5.30;;
6985;SDS011;3533;51.246;6.850;2022-10-31T09:04:58;5.40;;;5.00;;
6985;SDS011;3533;51.246;6.850;2022-10-31T09:07:24;5.20;;;4.70;;
6985;SDS011;3533;51.246;6.850;2022-10-31T09:09:49;5.73;;;5.30;;
6985;SDS011;3533;51.246;6.850;2022-10-31T09:12:15;5.30;;;4.77;;
6985;SDS011;3533;51.246;6.850;2022-10-31T09:14:40;5.57;;;5.17;;
6985;SDS011;3533;51.246;6.850;2022-10-31T09:17:06;5.30;;;4.80;;
6985;SDS011;3533;51.246;6.850;2022-10-31T09:19:31;5.70;;;5.30;;
6985;SDS011;3533;51.246;6.850;2022-10-31T09:21:57;6.40;;;5.07;;
6985;SDS011;3533;51.246;6.850;2022-10-31T09:24:22;5.97;;;5.40;;
6985;SDS011;3533;51.246;6.850;2022-10-31T09:26:48;5.40;;;5.00;;
6985;SDS011;3533;51.246;6.850;2022-10-31T09:29:13;4.33;;;3.80;;
6985;SDS011;3533;51.246;6.850;2022-10-31T09:31:39;5.90;;;5.40;;
6985;SDS011;3533;51.246;6.850;2022-10-31T09:34:04;6.60;;;5.20;;
6985;SDS011;3533;51.246;6.850;2022-10-31T09:36:30;12.97;;;5.47;;
6985;SDS011;3533;51.246;6.850;2022-10-31T09:38:55;15.63;;;5.57;;
6985;SDS011;3533;51.246;6.850;2022-10-31T09:44:01;8.70;;;5.70;;
6985;SDS011;3533;51.246;6.850;2022-10-31T09:46:49;6.10;;;5.60;;
6985;SDS011;3533;51.246;6.850;2022-10-31T09:49:30;5.83;;;5.23;;
6985;SDS011;3533;51.246;6.850;2022-10-31T09:54:38;6.10;;;5.43;;
6985;SDS011;3533;51.246;6.850;2022-10-31T09:57:33;5.10;;;4.67;;
6985;SDS011;3533;51.246;6.850;2022-10-31T10:00:00;7.80;;;5.83;;
6985;SDS011;3533;51.246;6.850;2022-10-31T10:07:28;5.57;;;5.07;;
6985;SDS011;3533;51.246;6.850;2022-10-31T10:13:25;5.13;;;4.73;;
6985;SDS011;3533;51.246;6.850;2022-10-31T10:27:16;7.50;;;4.23;;
6985;SDS011;3533;51.246;6.850;2022-10-31T10:29:51;5.63;;;4.93;;
6985;SDS011;3533;51.246;6.850;2022-10-31T10:32:24;5.50;;;5.00;;
6985;SDS011;3533;51.246;6.850;2022-10-31T10:34:54;6.23;;;5.20;;
6985;SDS011;3533;51.246;6.850;2022-10-31T10:37:32;5.30;;;4.90;;
6985;SDS011;3533;51.246;6.850;2022-10-31T10:40:20;4.83;;;4.63;;
6985;SDS011;3533;51.246;6.850;2022-10-31T10:42:55;5.30;;;4.43;;
6985;SDS011;3533;51.246;6.850;2022-10-31T10:45:48;4.90;;;4.60;;
6985;SDS011;3533;51.246;6.850;2022-10-31T10:48:40;4.57;;;4.27;;
6985;SDS011;3533;51.246;6.850;2022-10-31T10:51:07;6.80;;;4.93;;
6985;SDS011;3533;51.246;6.850;2022-10-31T10:53:49;5.53;;;5.07;;
6985;SDS011;3533;51.246;6.850;2022-10-31T10:59:16;4.67;;;4.37;;
6985;SDS011;3533;51.246;6.850;2022-10-31T11:01:45;5.60;;;5.20;;
6985;SDS011;3533;51.246;6.850;2022-10-31T11:04:23;5.30;;;4.97;;
6985;SDS011;3533;51.246;6.850;2022-10-31T11:07:03;5.00;;;4.67;;
6985;SDS011;3533;51.246;6.850;2022-10-31T11:09:31;5.57;;;5.10;;
6985;SDS011;3533;51.246;6.850;2022-10-31T11:11:58;4.80;;;4.50;;
6985;SDS011;3533;51.246;6.850;2022-10-31T11:14:25;5.77;;;5.40;;
6985;SDS011;3533;51.246;6.850;2022-10-31T11:16:54;5.50;;;5.00;;
6985;SDS011;3533;51.246;6.850;2022-10-31T11:19:33;5.77;;;5.30;;
6985;SDS011;3533;51.246;6.850;2022-10-31T11:22:05;5.47;;;5.07;;
6985;SDS011;3533;51.246;6.850;2022-10-31T11:24:36;5.30;;;5.00;;
6985;SDS011;3533;51.246;6.850;2022-10-31T11:27:19;5.60;;;5.10;;
6985;SDS011;3533;51.246;6.850;2022-10-31T11:29:45;5.70;;;5.20;;
6985;SDS011;3533;51.246;6.850;2022-10-31T11:32:21;4.67;;;4.10;;
6985;SDS011;3533;51.246;6.850;2022-10-31T11:34:53;5.60;;;5.10;;
6985;SDS011;3533;51.246;6.850;2022-10-31T11:37:21;5.57;;;5.10;;
6985;SDS011;3533;51.246;6.850;2022-10-31T11:39:53;6.20;;;5.70;;
6985;SDS011;3533;51.246;6.850;2022-10-31T11:42:30;5.90;;;5.33;;
6985;SDS011;3533;51.246;6.850;2022-10-31T11:45:05;5.60;;;5.27;;
6985;SDS011;3533;51.246;6.850;2022-10-31T11:47:40;4.50;;;4.20;;
6985;SDS011;3533;51.246;6.850;2022-10-31T11:50:10;6.00;;;5.50;;
6985;SDS011;3533;51.246;6.850;2022-10-31T11:52:40;5.20;;;4.90;;
6985;SDS011;3533;51.246;6.850;2022-10-31T11:57:44;4.57;;;4.37;;
6985;SDS011;3533;51.246;6.850;2022-10-31T12:00:48;5.03;;;4.73;;
6985;SDS011;3533;51.246;6.850;2022-10-31T12:05:47;5.80;;;5.30;;
6985;SDS011;3533;51.246;6.850;2022-10-31T12:08:21;5.30;;;4.90;;
6985;SDS011;3533;51.246;6.850;2022-10-31T12:10:55;5.83;;;5.40;;
6985;SDS011;3533;51.246;6.850;2022-10-31T12:16:38;6.30;;;5.73;;
6985;SDS011;3533;51.246;6.850;2022-10-31T12:19:29;5.50;;;5.00;;
6985;SDS011;3533;51.246;6.850;2022-10-31T12:22:12;6.30;;;5.87;;
6985;SDS011;3533;51.246;6.850;2022-10-31T12:27:17;4.83;;;4.53;;
6985;SDS011;3533;51.246;6.850;2022-10-31T12:35:59;4.70;;;4.40;;
6985;SDS011;3533;51.246;6.850;2022-10-31T12:38:48;4.70;;;4.40;;
6985;SDS011;3533;51.246;6.850;2022-10-31T12:41:32;4.60;;;4.40;;
6985;SDS011;3533;51.246;6.850;2022-10-31T12:47:09;5.40;;;5.10;;
6985;SDS011;3533;51.246;6.850;2022-10-31T12:50:22;5.77;;;5.27;;
6985;SDS011;3533;51.246;6.850;2022-10-31T12:55:40;5.50;;;5.10;;
6985;SDS011;3533;51.246;6.850;2022-10-31T13:00:58;4.90;;;4.50;;
6985;SDS011;3533;51.246;6.850;2022-10-31T13:03:44;5.00;;;4.70;;
6985;SDS011;3533;51.246;6.850;2022-10-31T13:06:24;5.63;;;5.10;;
6985;SDS011;3533;51.246;6.850;2022-10-31T13:09:06;5.57;;;5.17;;
6985;SDS011;3533;51.246;6.850;2022-10-31T13:11:36;5.30;;;4.90;;
6985;SDS011;3533;51.246;6.850;2022-10-31T13:14:11;5.53;;;5.20;;
6985;SDS011;3533;51.246;6.850;2022-10-31T13:16:38;5.27;;;4.77;;
6985;SDS011;3533;51.246;6.850;2022-10-31T13:19:20;4.63;;;4.30;;
6985;SDS011;3533;51.246;6.850;2022-10-31T13:25:16;5.43;;;4.63;;
6985;SDS011;3533;51.246;6.850;2022-10-31T13:27:57;4.70;;;4.40;;
6985;SDS011;3533;51.246;6.850;2022-10-31T13:30:49;6.20;;;3.93;;
6985;SDS011;3533;51.246;6.850;2022-10-31T13:36:14;4.03;;;3.83;;
6985;SDS011;3533;51.246;6.850;2022-10-31T13:38:58;4.63;;;4.33;;
6985;SDS011;3533;51.246;6.850;2022-10-31T13:44:12;4.53;;;4.33;;
6985;SDS011;3533;51.246;6.850;2022-10-31T13:46:49;4.40;;;4.10;;
6985;SDS011;3533;51.246;6.850;2022-10-31T13:51:53;4.80;;;4.50;;
6985;SDS011;3533;51.246;6.850;2022-10-31T13:54:41;4.40;;;4.00;;
6985;SDS011;3533;51.246;6.850;2022-10-31T13:59:59;4.27;;;4.07;;
6985;SDS011;3533;51.246;6.850;2022-10-31T14:02:47;3.60;;;3.33;;
6985;SDS011;3533;51.246;6.850;2022-10-31T14:05:28;5.10;;;4.03;;
6985;SDS011;3533;51.246;6.850;2022-10-31T14:07:59;4.20;;;3.90;;
6985;SDS011;3533;51.246;6.850;2022-10-31T14:10:28;4.07;;;3.87;;
6985;SDS011;3533;51.246;6.850;2022-10-31T14:13:04;4.73;;;4.40;;
6985;SDS011;3533;51.246;6.850;2022-10-31T14:15:33;4.97;;;4.57;;
6985;SDS011;3533;51.246;6.850;2022-10-31T14:18:01;4.50;;;4.20;;
6985;SDS011;3533;51.246;6.850;2022-10-31T14:23:10;4.60;;;4.30;;
6985;SDS011;3533;51.246;6.850;2022-10-31T14:28:45;4.27;;;4.07;;
6985;SDS011;3533;51.246;6.850;2022-10-31T14:34:24;4.07;;;3.87;;
6985;SDS011;3533;51.246;6.850;2022-10-31T14:42:37;4.20;;;4.00;;
6985;SDS011;3533;51.246;6.850;2022-10-31T14:45:29;3.80;;;3.60;;
6985;SDS011;3533;51.246;6.850;2022-10-31T14:48:11;4.00;;;3.80;;
6985;SDS011;3533;51.246;6.850;2022-10-31T14:50:47;4.03;;;3.83;;
6985;SDS011;3533;51.246;6.850;2022-10-31T14:53:25;3.80;;;3.60;;
6985;SDS011;3533;51.246;6.850;2022-10-31T14:55:55;4.00;;;3.80;;
6985;SDS011;3533;51.246;6.850;2022-10-31T14:58:41;4.13;;;3.67;;
6985;SDS011;3533;51.246;6.850;2022-10-31T15:04:15;4.70;;;4.30;;
6985;SDS011;3533;51.246;6.850;2022-10-31T15:06:45;4.53;;;4.20;;
6985;SDS011;3533;51.246;6.850;2022-10-31T15:09:27;4.50;;;4.10;;
6985;SDS011;3533;51.246;6.850;2022-10-31T15:11:55;3.67;;;3.47;;
6985;SDS011;3533;51.246;6.850;2022-10-31T15:14:22;3.90;;;3.70;;
6985;SDS011;3533;51.246;6.850;2022-10-31T15:16:49;4.10;;;3.90;;
6985;SDS011;3533;51.246;6.850;2022-10-31T15:19:18;3.37;;;3.17;;
6985;SDS011;3533;51.246;6.850;2022-10-31T15:21:46;3.87;;;3.57;;
6985;SDS011;3533;51.246;6.850;2022-10-31T15:24:13;3.83;;;3.53;;
6985;SDS011;3533;51.246;6.850;2022-10-31T15:26:44;6.23;;;3.70;;
6985;SDS011;3533;51.246;6.850;2022-10-31T15:29:12;3.50;;;3.30;;
6985;SDS011;3533;51.246;6.850;2022-10-31T15:31:48;3.80;;;3.60;;
6985;SDS011;3533;51.246;6.850;2022-10-31T15:34:22;4.10;;;3.80;;
6985;SDS011;3533;51.246;6.850;2022-10-31T15:36:53;4.00;;;3.80;;
6985;SDS011;3533;51.246;6.850;2022-10-31T15:39:19;4.20;;;3.90;;
6985;SDS011;3533;51.246;6.850;2022-10-31T15:41:49;5.80;;;4.27;;
6985;SDS011;3533;51.246;6.850;2022-10-31T15:44:28;5.00;;;3.77;;
6985;SDS011;3533;51.246;6.850;2022-10-31T15:47:05;4.00;;;3.70;;
6985;SDS011;3533;51.246;6.850;2022-10-31T15:49:40;3.80;;;3.50;;
6985;SDS011;3533;51.246;6.850;2022-10-31T15:52:14;4.17;;;3.80;;
6985;SDS011;3533;51.246;6.850;2022-10-31T15:54:46;7.87;;;4.00;;
6985;SDS011;3533;51.246;6.850;2022-10-31T15:57:16;3.77;;;3.57;;
6985;SDS011;3533;51.246;6.850;2022-10-31T15:59:45;3.73;;;3.53;;
6985;SDS011;3533;51.246;6.850;2022-10-31T16:02:13;3.87;;;3.60;;
6985;SDS011;3533;51.246;6.850;2022-10-31T16:04:55;4.20;;;3.90;;
6985;SDS011;3533;51.246;6.850;2022-10-31T16:07:23;3.50;;;3.30;;
6985;SDS011;3533;51.246;6.850;2022-10-31T16:09:50;3.90;;;3.70;;
6985;SDS011;3533;51.246;6.850;2022-10-31T16:12:16;4.30;;;4.00;;
6985;SDS011;3533;51.246;6.850;2022-10-31T16:14:42;3.73;;;3.50;;
6985;SDS011;3533;51.246;6.850;2022-10-31T16:17:11;4.73;;;4.30;;
6985;SDS011;3533;51.246;6.850;2022-10-31T16:19:47;4.07;;;3.87;;
6985;SDS011;3533;51.246;6.850;2022-10-31T16:22:26;3.63;;;3.43;;
6985;SDS011;3533;51.246;6.850;2022-10-31T16:25:04;5.00;;;3.67;;
6985;SDS011;3533;51.246;6.850;2022-10-31T16:27:36;3.50;;;3.20;;
6985;SDS011;3533;51.246;6.850;2022-10-31T16:30:24;4.07;;;3.77;;
6985;SDS011;3533;51.246;6.850;2022-10-31T16:32:58;4.03;;;3.73;;
6985;SDS011;3533;51.246;6.850;2022-10-31T16:35:35;3.63;;;3.43;;
6985;SDS011;3533;51.246;6.850;2022-10-31T16:38:03;5.17;;;3.77;;
6985;SDS011;3533;51.246;6.850;2022-10-31T16:40:29;3.47;;;3.27;;
6985;SDS011;3533;51.246;6.850;2022-10-31T16:42:56;3.30;;;3.10;;
6985;SDS011;3533;51.246;6.850;2022-10-31T16:45:26;3.60;;;3.30;;
6985;SDS011;3533;51.246;6.850;2022-10-31T16:47:53;3.53;;;3.33;;
6985;SDS011;3533;51.246;6.850;2022-10-31T16:50:26;3.90;;;3.60;;
6985;SDS011;3533;51.246;6.850;2022-10-31T16:52:52;5.67;;;3.60;;
6985;SDS011;3533;51.246;6.850;2022-10-31T16:55:19;3.73;;;3.50;;
6985;SDS011;3533;51.246;6.850;2022-10-31T16:57:48;4.23;;;3.93;;
6985;SDS011;3533;51.246;6.850;2022-10-31T17:00:19;4.30;;;3.90;;
6985;SDS011;3533;51.246;6.850;2022-10-31T17:02:50;3.70;;;3.30;;
6985;SDS011;3533;51.246;6.850;2022-10-31T17:05:18;3.30;;;3.10;;
6985;SDS011;3533;51.246;6.850;2022-10-31T17:07:44;3.70;;;3.50;;
6985;SDS011;3533;51.246;6.850;2022-10-31T17:10:11;3.60;;;3.40;;
6985;SDS011;3533;51.246;6.850;2022-10-31T17:12:38;3.10;;;2.90;;
6985;SDS011;3533;51.246;6.850;2022-10-31T17:15:13;3.33;;;3.03;;
6985;SDS011;3533;51.246;6.850;2022-10-31T17:17:44;3.90;;;3.57;;
6985;SDS011;3533;51.246;6.850;2022-10-31T17:20:15;4.33;;;3.93;;
6985;SDS011;3533;51.246;6.850;2022-10-31T17:22:44;3.00;;;2.83;;
6985;SDS011;3533;51.246;6.850;2022-10-31T17:25:12;4.03;;;3.73;;
6985;SDS011;3533;51.246;6.850;2022-10-31T17:27:43;3.43;;;3.23;;
6985;SDS011;3533;51.246;6.850;2022-10-31T17:30:12;4.30;;;4.00;;
6985;SDS011;3533;51.246;6.850;2022-10-31T17:32:38;3.77;;;3.43;;
6985;SDS011;3533;51.246;6.850;2022-10-31T17:35:05;3.87;;;3.57;;
6985;SDS011;3533;51.246;6.850;2022-10-31T17:37:31;3.60;;;3.40;;